Time;durP1;ratioP1;P1;durP2;ratioP2;P2;SDS_P1;SDS_P2;PMS_P1;PMS_P2;Temp;Humidity;BMP_temperature;BMP_pressure;BME280_temperature;BME280_humidity;BME280_pressure;Samples;Min_cycle;Max_cycle;Signal;HPM_P1;HPM_P2
2021/12/13 00:02:02;;;;;;;31.42;16.52;;;;;;;10.67;62.24;101934.41;6069428;23;99181;-80
2021/12/13 00:04:33;;;;;;;32.40;17.73;;;;;;;10.58;63.41;101941.63;6069957;23;96671;-78
2021/12/13 00:07:05;;;;;;;33.13;16.70;;;;;;;10.60;63.27;101931.91;6067347;23;97229;-80
2021/12/13 00:09:39;;;;;;;31.23;17.65;;;;;;;10.91;62.59;101935.75;6064950;23;99341;-78
2021/12/13 00:12:07;;;;;;;31.40;17.20;;;;;;;11.06;62.19;101940.75;6064778;23;101231;-78
2021/12/13 00:14:38;;;;;;;30.98;17.10;;;;;;;11.15;61.27;101939.72;6066089;23;97007;-80
2021/12/13 00:17:12;;;;;;;28.13;15.65;;;;;;;10.58;63.45;101938.97;6065609;23;96739;-79
2021/12/13 00:19:41;;;;;;;27.75;15.88;;;;;;;10.92;62.63;101947.19;6064881;23;98807;-80
2021/12/13 00:22:14;;;;;;;27.45;16.08;;;;;;;11.05;62.22;101951.38;6065230;23;98761;-77
2021/12/13 00:24:44;;;;;;;30.75;17.42;;;;;;;10.98;62.69;101958.53;6070974;23;96606;-78
2021/12/13 00:27:13;;;;;;;27.02;16.48;;;;;;;11.03;62.19;101950.50;6066785;23;97156;-79
2021/12/13 00:29:47;;;;;;;28.85;16.58;;;;;;;11.08;61.59;101938.09;6066703;23;100419;-78
2021/12/13 00:32:19;;;;;;;30.52;17.55;;;;;;;11.20;61.06;101951.09;6066257;23;100819;-78
2021/12/13 00:34:50;;;;;;;30.45;17.30;;;;;;;11.25;61.14;101949.22;6066818;23;96769;-77
2021/12/13 00:37:23;;;;;;;31.67;17.45;;;;;;;10.84;61.94;101957.91;6067445;23;96857;-79
2021/12/13 00:39:54;;;;;;;29.60;16.77;;;;;;;10.90;62.18;101952.50;6065004;23;97942;-77
2021/12/13 00:42:24;;;;;;;28.48;16.90;;;;;;;11.08;61.73;101954.84;6066397;23;98805;-79
2021/12/13 00:44:54;;;;;;;26.58;16.48;;;;;;;11.05;61.36;101948.72;6071672;23;96644;-79
2021/12/13 00:47:24;;;;;;;28.38;16.88;;;;;;;11.21;61.54;101954.63;6071646;23;96500;-78
2021/12/13 00:49:58;;;;;;;27.35;16.48;;;;;;;11.31;61.05;101962.34;6069497;23;98931;-79
2021/12/13 00:52:27;;;;;;;30.65;16.85;;;;;;;11.27;61.12;101965.06;6074524;23;97897;-79
2021/12/13 00:54:56;;;;;;;31.42;17.10;;;;;;;11.28;61.14;101959.75;6084872;23;96465;-79
2021/12/13 00:57:42;;;;;;;31.63;18.23;;;;;;;11.28;61.37;101965.06;6080416;23;96630;-78
2021/12/13 01:00:14;;;;;;;28.88;18.10;;;;;;;10.93;61.92;101973.63;6072653;23;99262;-78
2021/12/13 01:02:44;;;;;;;29.23;17.15;;;;;;;10.96;62.23;101972.72;6080772;23;97700;-80
2021/12/13 01:05:14;;;;;;;31.58;17.83;;;;;;;11.13;61.78;101975.91;6085038;23;96536;-79
2021/12/13 01:08:08;;;;;;;30.38;18.02;;;;;;;11.15;61.81;101987.34;6083002;23;96409;-77
2021/12/13 01:11:08;;;;;;;30.58;17.88;;;;;;;11.22;61.23;101985.47;6087732;23;98844;-78
2021/12/13 01:13:49;;;;;;;33.08;18.52;;;;;;;10.99;62.03;101997.31;6083844;23;97960;-78
2021/12/13 01:16:36;;;;;;;29.83;17.48;;;;;;;11.10;62.35;101998.00;6076018;23;96717;-80
2021/12/13 01:19:46;;;;;;;32.95;17.95;;;;;;;11.28;61.22;101994.16;6066588;23;97040;-77
2021/12/13 01:22:34;;;;;;;31.92;18.17;;;;;;;11.23;61.04;101998.63;6064308;23;98896;-77
2021/12/13 01:25:23;;;;;;;31.13;17.27;;;;;;;11.37;61.07;101993.09;6065738;23;98720;-78
2021/12/13 01:27:57;;;;;;;31.48;18.20;;;;;;;11.23;61.73;102003.94;6064617;23;97201;-78
2021/12/13 01:30:30;;;;;;;29.80;17.92;;;;;;;11.54;60.06;102009.53;6063834;23;96741;-78
2021/12/13 01:32:59;;;;;;;29.38;17.73;;;;;;;11.31;60.74;102004.66;6063403;23;99162;-78
2021/12/13 01:35:32;;;;;;;31.20;18.75;;;;;;;11.33;60.92;102005.53;6065058;23;98859;-78
2021/12/13 01:38:03;;;;;;;33.53;19.65;;;;;;;11.30;61.16;102005.56;6063627;23;96628;-77
2021/12/13 01:40:36;;;;;;;40.25;19.05;;;;;;;11.35;61.32;102009.03;6063884;23;96832;-77
2021/12/13 01:43:07;;;;;;;33.22;18.45;;;;;;;11.55;60.65;102006.00;6063014;23;99035;-77
2021/12/13 01:45:37;;;;;;;33.95;18.42;;;;;;;11.69;59.98;102017.16;6073418;23;98903;-78
2021/12/13 01:48:05;;;;;;;34.17;18.25;;;;;;;11.44;60.32;102019.41;6074649;23;96758;-79
2021/12/13 01:50:43;;;;;;;32.88;18.42;;;;;;;11.37;60.34;102008.97;6065858;23;96810;-78
2021/12/13 01:53:10;;;;;;;33.33;19.15;;;;;;;11.40;60.81;102012.44;6071010;23;98961;-78
2021/12/13 01:55:44;;;;;;;33.05;18.02;;;;;;;11.42;60.74;102015.06;6064660;23;99098;-79
2021/12/13 01:58:34;;;;;;;32.72;18.95;;;;;;;11.40;60.65;102020.38;6067130;23;96907;-79
2021/12/13 02:01:10;;;;;;;34.33;18.98;;;;;;;11.27;61.11;102015.34;6065197;23;96646;-78
2021/12/13 02:03:52;;;;;;;34.08;19.33;;;;;;;11.38;60.55;102008.94;6065187;23;101301;-78
2021/12/13 02:06:30;;;;;;;32.55;19.00;;;;;;;11.22;61.27;102012.81;6064774;23;99715;-78
2021/12/13 02:09:00;;;;;;;33.97;19.35;;;;;;;11.25;61.31;102023.31;6066066;23;96639;-78
2021/12/13 02:11:31;;;;;;;36.42;20.60;;;;;;;11.31;61.13;102020.56;6064023;23;97178;-78
2021/12/13 02:14:13;;;;;;;33.63;19.45;;;;;;;11.26;61.64;102019.75;6063215;23;98812;-78
2021/12/13 02:17:00;;;;;;;36.60;19.85;;;;;;;11.11;61.96;102015.63;6062755;23;98882;-78
2021/12/13 02:19:32;;;;;;;;;;;;;;;11.27;61.83;102018.00;6075057;23;96708;-78
2021/12/13 02:22:14;;;;;;;34.60;17.85;;;;;;;11.36;61.39;102017.81;6070147;23;96679;-79
2021/12/13 02:24:42;;;;;;;38.20;19.60;;;;;;;11.29;61.77;102017.03;6066725;23;101884;-78
2021/12/13 02:27:12;;;;;;;36.45;19.73;;;;;;;11.13;62.25;102020.88;6069996;23;96764;-78
2021/12/13 02:29:39;;;;;;;39.80;20.55;;;;;;;11.36;61.67;102016.03;6071644;23;96665;-77
2021/12/13 02:32:09;;;;;;;34.17;18.75;;;;;;;11.45;61.39;102023.81;6065796;23;96878;-77
2021/12/13 02:34:37;;;;;;;34.63;18.85;;;;;;;11.47;60.90;102024.66;6063921;23;98905;-77
2021/12/13 02:37:05;;;;;;;38.47;20.70;;;;;;;11.64;60.19;102020.81;6064834;23;99452;-78
2021/12/13 02:39:35;;;;;;;33.70;18.88;;;;;;;11.63;60.49;102027.88;6066599;23;96639;-78
2021/12/13 02:42:06;;;;;;;35.88;18.85;;;;;;;11.61;60.04;102026.19;6067466;23;96789;-77
2021/12/13 02:44:38;;;;;;;33.97;18.40;;;;;;;11.53;60.59;102023.69;6065557;23;99054;-78
2021/12/13 02:47:09;;;;;;;33.95;19.80;;;;;;;11.52;60.55;102025.44;6066651;23;99225;-78
2021/12/13 02:49:39;;;;;;;33.65;18.75;;;;;;;11.57;60.70;102022.69;6065152;23;97303;-78
2021/12/13 02:52:10;;;;;;;37.17;18.77;;;;;;;11.58;60.22;102025.31;6068370;23;96665;-77
2021/12/13 02:54:40;;;;;;;36.03;19.77;;;;;;;11.34;61.15;102023.16;6072011;23;99091;-78
2021/12/13 02:57:12;;;;;;;40.15;19.63;;;;;;;11.45;60.89;102015.88;6076757;23;98640;-77
2021/12/13 02:59:42;;;;;;;39.67;19.65;;;;;;;11.28;61.61;102025.91;6079315;23;96509;-78
2021/12/13 03:02:13;;;;;;;33.45;18.02;;;;;;;11.48;61.07;102037.00;6077479;23;96788;-80
2021/12/13 03:04:40;;;;;;;34.28;18.08;;;;;;;11.53;60.85;102029.84;6077401;23;97836;-77
2021/12/13 03:07:13;;;;;;;38.45;18.55;;;;;;;11.41;61.47;102029.22;6075415;23;96691;-79
2021/12/13 03:09:42;;;;;;;38.08;18.33;;;;;;;11.46;60.82;102030.88;6079656;23;96632;-79
2021/12/13 03:12:14;;;;;;;36.35;18.63;;;;;;;11.61;60.34;102032.34;6087375;23;96746;-79
2021/12/13 03:14:45;;;;;;;35.53;18.90;;;;;;;11.70;60.09;102036.56;6087142;23;99324;-79
2021/12/13 07:33:17;;;;;;;58.30;17.27;;;;;;;11.85;61.32;102190.81;6111793;22;99924;-77
2021/12/13 07:35:47;;;;;;;55.40;16.08;;;;;;;11.90;60.85;102196.00;6112218;23;96658;-77
2021/12/13 07:38:25;;;;;;;61.38;16.42;;;;;;;11.75;61.44;102199.78;6103423;23;96838;-78
2021/12/13 07:40:56;;;;;;;63.40;22.55;;;;;;;11.84;61.64;102202.28;6092273;23;96722;-77
2021/12/13 07:43:27;;;;;;;50.58;16.55;;;;;;;11.98;60.89;102200.28;6089395;23;99484;-77
2021/12/13 07:45:59;;;;;;;52.00;15.85;;;;;;;11.97;60.84;102208.25;6092278;23;99347;-78
2021/12/13 07:49:12;;;;;;;;;;;;;;;;;;;;;
2021/12/13 07:52:18;;;;;;;;;;;;;;;;;;;;;
2021/12/13 07:54:53;;;;;;;46.67;14.85;;;;;;;12.12;60.50;102205.31;6093131;23;126861;-77
2021/12/13 07:57:41;;;;;;;52.05;15.63;;;;;;;12.28;60.29;102212.06;6102033;23;98720;-78
2021/12/13 08:00:17;;;;;;;43.85;16.35;;;;;;;11.96;60.74;102209.13;6109623;23;97036;-78
2021/12/13 08:02:59;;;;;;;43.17;16.17;;;;;;;12.08;60.67;102205.41;6101855;23;96611;-78
2021/12/13 08:05:38;;;;;;;47.75;16.25;;;;;;;12.16;60.88;102214.06;6098525;23;99648;-80
2021/12/13 08:08:08;;;;;;;45.05;15.75;;;;;;;12.27;60.51;102209.47;6101197;23;99100;-78
2021/12/13 08:10:42;;;;;;;44.58;16.20;;;;;;;12.19;60.35;102216.69;6100964;23;96772;-78
2021/12/13 08:13:13;;;;;;;39.70;14.48;;;;;;;12.30;60.45;102220.88;6102007;23;96769;-79
2021/12/13 08:15:42;;;;;;;48.50;15.35;;;;;;;12.35;60.11;102221.63;6100983;23;97796;-78
2021/12/13 08:18:22;;;;;;;43.58;17.35;;;;;;;12.33;59.90;102223.47;6101426;23;97992;-78
2021/12/13 08:21:01;;;;;;;48.67;16.15;;;;;;;12.50;59.27;102219.59;6101895;23;96797;-80
2021/12/13 08:23:45;;;;;;;;;;;;;;;;;;;;;
2021/12/13 08:26:29;;;;;;;42.17;15.23;;;;;;;12.34;60.20;102219.88;6102000;23;126266;-80
2021/12/13 08:29:06;;;;;;;47.30;15.35;;;;;;;12.41;59.91;102222.41;6100225;23;97928;-78
2021/12/13 08:31:39;;;;;;;40.85;14.68;;;;;;;12.48;59.71;102224.91;6106059;23;96867;-78
2021/12/13 08:34:20;;;;;;;;;;;;;;;;;;;;;
2021/12/13 08:37:14;;;;;;;41.28;14.75;;;;;;;12.53;60.11;102228.38;6100818;23;128170;-80
2021/12/13 08:39:52;;;;;;;35.53;14.63;;;;;;;12.60;59.79;102231.78;6106855;23;98823;-79
2021/12/13 08:42:40;;;;;;;;;;;;;;;;;;;;;
2021/12/13 08:45:12;;;;;;;39.70;14.48;;;;;;;12.63;59.62;102231.69;6084509;23;118536;-78
2021/12/13 08:48:12;;;;;;;;;;;;;;;;;;;;;
2021/12/13 08:50:57;;;;;;;34.83;14.10;;;;;;;12.82;58.80;102234.84;6105127;23;126889;-79
2021/12/13 08:53:38;;;;;;;;;;;;;;;;;;;;;
2021/12/13 08:56:24;;;;;;;;;;;;;;;;;;;;;
2021/12/13 08:59:10;;;;;;;;;;;;;;;;;;;;;
2021/12/13 09:01:47;;;;;;;34.45;14.57;;;;;;;12.76;59.29;102231.41;6108690;23;126714;-79
2021/12/13 09:04:27;;;;;;;36.58;14.60;;;;;;;12.68;58.96;102233.34;6109282;23;96627;-77
2021/12/13 09:07:25;;;;;;;;;;;;;;;;;;;;;
2021/12/13 09:09:55;;;;;;;32.63;14.18;;;;;;;12.72;59.16;102235.03;6106284;23;127134;-79
2021/12/13 09:12:34;;;;;;;35.70;15.02;;;;;;;12.77;59.43;102230.50;6103135;23;98473;-81
2021/12/13 09:15:06;;;;;;;36.55;14.60;;;;;;;12.83;59.30;102231.28;6098760;23;96574;-78
2021/12/13 09:17:38;;;;;;;30.77;14.13;;;;;;;12.85;58.82;102235.66;6094311;23;96851;-77
2021/12/13 09:20:13;;;;;;;31.05;14.27;;;;;;;12.87;59.28;102246.22;6095805;23;98888;-80
2021/12/13 09:22:43;;;;;;;30.80;14.48;;;;;;;12.98;59.13;102247.75;6094809;23;98792;-79
2021/12/13 09:25:18;;;;;;;30.40;13.10;;;;;;;12.88;59.30;102242.66;6094255;23;96648;-78
2021/12/13 09:27:54;;;;;;;31.30;14.02;;;;;;;13.02;59.22;102245.91;6094520;23;96729;-79
2021/12/13 09:30:39;;;;;;;37.55;14.65;;;;;;;12.96;58.71;102241.59;6095284;23;99220;-79
2021/12/13 09:33:14;;;;;;;32.50;13.35;;;;;;;12.96;59.49;102233.63;6093779;23;98765;-78
2021/12/13 09:35:48;;;;;;;31.52;14.13;;;;;;;13.03;58.87;102237.03;6094372;23;96673;-78
2021/12/13 09:38:42;;;;;;;28.95;12.27;;;;;;;12.84;58.73;102239.22;6094018;23;97052;-78
2021/12/13 09:41:18;;;;;;;27.75;12.18;;;;;;;12.87;59.61;102251.53;6093480;23;98929;-78
2021/12/13 09:43:50;;;;;;;24.02;11.70;;;;;;;12.97;60.07;102251.31;6093899;23;98703;-79
2021/12/13 09:46:21;;;;;;;27.27;11.80;;;;;;;13.11;59.00;102248.34;6093510;23;97410;-80
2021/12/13 09:48:55;;;;;;;28.88;12.07;;;;;;;13.01;58.96;102247.66;6095905;23;96830;-79
2021/12/13 09:51:30;;;;;;;24.52;11.90;;;;;;;12.94;59.83;102251.38;6094866;23;98948;-78
2021/12/13 09:54:23;;;;;;;21.83;11.18;;;;;;;12.84;59.72;102251.59;6093823;23;98780;-78
2021/12/13 09:57:01;;;;;;;25.55;10.50;;;;;;;13.01;59.46;102258.28;6093963;23;96693;-77
2021/12/13 09:59:36;;;;;;;27.65;11.77;;;;;;;12.88;59.81;102251.50;6093972;23;96690;-78
2021/12/13 10:02:10;;;;;;;23.95;11.57;;;;;;;12.97;59.86;102256.63;6092531;23;98906;-77
2021/12/13 10:04:40;;;;;;;23.65;10.27;;;;;;;13.16;59.31;102257.13;6092547;23;99161;-79
2021/12/13 10:07:11;;;;;;;25.80;12.05;;;;;;;13.06;59.63;102253.75;6092468;23;96720;-78
2021/12/13 10:09:41;;;;;;;29.65;11.85;;;;;;;13.00;59.89;102245.91;6093081;23;96644;-77
2021/12/13 10:12:55;;;;;;;;;;;;;;;;;;;;;
2021/12/13 10:15:26;;;;;;;27.42;12.35;;;;;;;13.21;59.75;102249.03;6050559;23;128278;-78
2021/12/13 10:18:00;;;;;;;25.50;11.80;;;;;;;13.26;59.21;102250.69;6093107;23;96820;-78
2021/12/13 10:20:30;;;;;;;30.05;11.98;;;;;;;13.28;59.00;102248.00;6092446;23;97504;-78
2021/12/13 10:22:57;;;;;;;29.65;12.43;;;;;;;13.45;58.87;102248.50;6091316;23;98945;-79
2021/12/13 10:25:27;;;;;;;27.88;13.05;;;;;;;13.47;59.24;102251.97;6090743;23;99168;-77
2021/12/13 10:27:57;;;;;;;33.25;12.98;;;;;;;13.43;58.73;102245.00;6090635;23;96775;-78
2021/12/13 10:30:31;;;;;;;32.55;13.50;;;;;;;13.20;59.80;102250.81;6092713;23;96719;-78
2021/12/13 10:33:00;;;;;;;33.45;13.32;;;;;;;13.25;59.58;102250.75;6092148;23;99218;-78
2021/12/13 10:35:32;;;;;;;28.27;12.95;;;;;;;13.37;59.17;102251.31;6091984;23;98741;-78
2021/12/13 10:38:03;;;;;;;37.72;13.68;;;;;;;13.29;59.83;102247.09;6092873;23;97112;-77
2021/12/13 10:40:35;;;;;;;31.63;13.57;;;;;;;13.31;60.26;102250.59;6092846;23;97416;-80
2021/12/13 10:43:07;;;;;;;35.42;13.60;;;;;;;13.34;59.96;102251.38;6091715;23;98948;-77
2021/12/13 10:45:40;;;;;;;32.63;13.27;;;;;;;13.28;59.96;102242.69;6092465;23;97650;-78
2021/12/13 10:48:36;;;;;;;30.35;13.02;;;;;;;13.41;60.16;102238.84;6096530;23;97285;-80
2021/12/13 10:51:08;;;;;;;34.53;13.85;;;;;;;13.32;59.52;102247.03;6096532;23;96605;-78
2021/12/13 10:53:36;;;;;;;32.53;13.15;;;;;;;13.40;60.71;102237.97;6107630;23;98124;-76
2021/12/13 10:56:07;;;;;;;39.88;15.15;;;;;;;13.50;60.51;102228.00;6112567;23;98860;-79
2021/12/13 10:58:37;;;;;;;34.45;14.50;;;;;;;13.52;59.97;102234.16;6109317;23;96591;-79
2021/12/13 11:01:08;;;;;;;36.17;13.98;;;;;;;13.54;60.11;102238.50;6098726;23;96873;-81
2021/12/13 11:03:37;;;;;;;34.20;13.77;;;;;;;13.52;60.09;102237.66;6100804;23;98777;-78
2021/12/13 11:06:08;;;;;;;40.13;14.85;;;;;;;13.57;60.17;102234.91;6103477;23;98858;-78
2021/12/13 11:08:41;;;;;;;36.53;15.80;;;;;;;13.40;59.97;102237.09;6106897;23;96654;-79
2021/12/13 11:11:25;;;;;;;33.95;14.25;;;;;;;13.67;60.25;102233.78;6106015;23;96746;-77
2021/12/13 11:13:56;;;;;;;26.27;13.75;;;;;;;13.45;60.25;102238.75;6103065;23;99605;-77
2021/12/13 11:16:29;;;;;;;31.55;12.38;;;;;;;13.55;59.47;102242.91;6097264;23;98805;-78
2021/12/13 11:18:56;;;;;;;31.35;13.82;;;;;;;13.61;59.89;102243.66;6095680;23;96910;-77
2021/12/13 11:22:23;;;;;;;42.45;19.73;;;;;;;13.74;59.64;102248.66;6098642;23;96848;-77
2021/12/13 11:24:54;;;;;;;30.85;13.10;;;;;;;13.59;60.08;102245.53;6075753;23;99077;-77
2021/12/13 11:27:24;;;;;;;28.33;12.45;;;;;;;13.69;59.91;102247.91;6101541;23;101050;-78
2021/12/13 11:29:53;;;;;;;30.30;12.23;;;;;;;13.78;59.66;102242.38;6095748;23;96651;-78
2021/12/13 11:33:12;;;;;;;28.48;13.30;;;;;;;13.52;60.50;102250.09;6096128;23;96985;-79
2021/12/13 11:36:14;;;;;;;29.08;12.45;;;;;;;13.72;60.76;102246.97;6098738;23;98905;-78
2021/12/13 11:39:19;;;;;;;25.73;12.57;;;;;;;13.76;60.31;102244.19;6106126;23;98255;-78
2021/12/13 11:42:13;;;;;;;23.33;11.95;;;;;;;13.68;60.52;102248.81;6080794;23;96856;-79
2021/12/13 11:45:09;;;;;;;23.63;12.02;;;;;;;13.71;60.72;102246.09;6108142;23;96865;-78
2021/12/13 11:48:09;;;;;;;23.02;11.43;;;;;;;13.83;60.27;102244.91;6108325;23;99318;-78
2021/12/13 11:51:05;;;;;;;29.20;12.73;;;;;;;13.83;60.44;102248.44;6107759;23;97949;-77
2021/12/13 11:54:04;;;;;;;24.60;10.93;;;;;;;13.92;59.87;102248.19;6095613;23;96607;-78
2021/12/13 11:57:09;;;;;;;19.08;10.48;;;;;;;13.84;60.59;102246.66;6106063;23;96653;-80
2021/12/13 11:59:49;;;;;;;22.73;11.23;;;;;;;13.91;60.02;102249.09;6107668;23;98902;-78
2021/12/13 12:02:29;;;;;;;17.42;9.98;;;;;;;13.81;60.66;102236.97;6107257;23;98849;-81
2021/12/13 12:05:57;;;;;;;;;;;;;;;;;;;;;
2021/12/13 12:09:06;;;;;;;17.83;9.65;;;;;;;14.16;60.19;102230.72;6005800;23;117524;-79
2021/12/13 12:12:13;;;;;;;17.90;9.88;;;;;;;14.02;60.40;102234.66;6106787;23;97899;-78
2021/12/13 12:15:02;;;;;;;17.80;8.63;;;;;;;14.14;60.20;102229.91;6108524;23;100226;-78
2021/12/13 12:17:49;;;;;;;20.08;8.65;;;;;;;14.35;60.13;102228.44;6111102;23;96790;-77
2021/12/13 12:29:41;;;;;;;13.15;7.78;;;;;;;14.20;59.95;102229.72;5881072;23;119297;-78
2021/12/13 12:32:14;;;;;;;14.38;8.15;;;;;;;14.26;60.20;102228.69;6022746;23;97075;-78
2021/12/13 12:34:56;;;;;;;17.88;9.30;;;;;;;14.01;60.31;102233.78;6096640;23;98968;-78
2021/12/13 12:37:56;;;;;;;13.82;7.57;;;;;;;14.29;60.14;102231.28;6102787;23;98829;-77
2021/12/13 12:40:31;;;;;;;12.50;8.10;;;;;;;14.16;59.92;102232.53;6108106;23;96770;-77
2021/12/13 12:43:12;;;;;;;16.13;7.85;;;;;;;14.10;60.62;102240.66;6103723;23;96621;-78
2021/12/13 12:45:53;;;;;;;11.07;7.35;;;;;;;14.03;60.67;102242.59;6095652;23;98904;-78
2021/12/13 12:48:27;;;;;;;12.65;7.25;;;;;;;14.19;60.39;102245.72;6093738;23;101811;-79
2021/12/13 12:51:01;;;;;;;11.63;7.28;;;;;;;14.28;60.54;102238.38;6095175;23;96704;-79
2021/12/13 12:54:01;;;;;;;12.98;7.88;;;;;;;14.22;60.18;102235.00;6093708;23;96704;-78
2021/12/13 12:56:41;;;;;;;;;;;;;;;;;;;;;
2021/12/13 12:59:15;;;;;;;15.07;6.95;;;;;;;14.32;60.58;102233.84;6108332;23;127760;-78
2021/12/13 13:02:03;;;;;;;;;;;;;;;;;;;;;
2021/12/13 13:04:36;;;;;;;12.82;7.07;;;;;;;14.35;60.09;102236.41;6088086;23;117604;-77
2021/12/13 13:07:06;;;;;;;16.95;8.18;;;;;;;14.27;60.20;102231.31;6099431;23;97806;-78
2021/12/13 13:09:44;;;;;;;12.13;6.70;;;;;;;14.20;61.00;102236.81;6098082;23;97644;-79
2021/12/13 13:12:17;;;;;;;12.18;7.18;;;;;;;14.40;60.21;102239.84;6097069;23;96627;-78
2021/12/13 13:14:47;;;;;;;12.27;7.35;;;;;;;14.34;60.78;102227.56;6095732;23;96788;-77
2021/12/13 13:17:15;;;;;;;11.52;6.72;;;;;;;14.18;61.43;102230.66;6097356;23;99424;-77
2021/12/13 13:19:47;;;;;;;12.30;7.05;;;;;;;14.42;60.70;102230.06;6105231;23;97691;-78
2021/12/13 13:22:25;;;;;;;12.85;6.60;;;;;;;14.17;61.51;102235.16;6099839;23;96695;-79
2021/12/13 13:24:58;;;;;;;11.10;5.93;;;;;;;14.39;60.73;102240.75;6100511;23;97087;-78
2021/12/13 13:27:37;;;;;;;;;;;;;;;;;;;;;
2021/12/13 13:30:12;;;;;;;8.88;5.88;;;;;;;14.16;60.84;102246.69;6097642;23;126801;-78
2021/12/13 13:32:43;;;;;;;13.43;6.43;;;;;;;14.26;61.38;102247.28;6100013;23;97208;-78
2021/12/13 13:35:12;;;;;;;8.55;5.35;;;;;;;14.48;60.49;102239.66;6098638;23;96630;-79
2021/12/13 13:37:44;;;;;;;10.48;5.57;;;;;;;14.35;60.53;102241.75;6096515;23;97798;-78
2021/12/13 13:41:12;;;;;;;;;;;;;;;;;;;;;
2021/12/13 13:56:49;;;;;;;;;;;;;;;;;;;;;
2021/12/13 13:59:28;;;;;;;11.00;6.18;;;;;;;14.20;61.25;102264.28;6040874;23;116191;-78
2021/12/13 14:02:08;;;;;;;11.93;6.00;;;;;;;14.42;61.57;102259.31;6090435;23;99258;-78
2021/12/13 14:05:15;;;;;;;11.63;6.55;;;;;;;14.29;61.35;102263.19;6102459;23;99752;-79
2021/12/13 14:08:33;;;;;;;;;;;;;;;;;;;;;
2021/12/13 14:20:48;;;;;;;;;;;;;;;;;;;;;
2021/12/13 15:17:30;;;;;;;27.33;11.75;;;;;;;14.45;63.07;102299.09;6109637;22;99021;-78
2021/12/13 15:20:03;;;;;;;26.63;11.07;;;;;;;14.49;62.97;102305.22;6061217;23;97097;-77
2021/12/13 15:22:36;;;;;;;25.92;11.80;;;;;;;14.48;63.18;102304.34;6060202;23;96654;-75
2021/12/13 15:25:04;;;;;;;27.10;12.18;;;;;;;14.51;63.43;102295.41;6061009;23;97803;-75
2021/12/13 15:27:31;;;;;;;29.67;12.60;;;;;;;14.44;63.31;102301.81;6061486;23;98753;-75
2021/12/13 15:30:01;;;;;;;35.13;13.32;;;;;;;14.57;62.79;102304.06;6060927;23;97590;-75
2021/12/13 15:32:30;;;;;;;25.48;12.52;;;;;;;14.36;64.17;102305.53;6060279;23;97277;-76
2021/12/13 15:35:00;;;;;;;25.95;12.00;;;;;;;14.28;64.11;102306.63;6061172;23;98914;-75
2021/12/13 15:37:29;;;;;;;30.48;13.63;;;;;;;14.40;63.83;102313.44;6061628;23;99148;-75
2021/12/13 15:39:58;;;;;;;30.83;12.82;;;;;;;14.49;63.42;102308.75;6063306;23;97493;-77
2021/12/13 15:42:25;;;;;;;28.10;12.35;;;;;;;14.44;63.72;102310.66;6060644;23;97190;-75
2021/12/13 15:44:52;;;;;;;27.23;13.80;;;;;;;14.15;64.93;102311.41;6061180;23;99140;-74
2021/12/13 15:47:18;;;;;;;27.33;12.60;;;;;;;14.09;65.51;102316.88;6061634;23;98191;-76
2021/12/13 15:49:45;;;;;;;28.85;12.52;;;;;;;14.11;65.93;102322.16;6062933;23;96608;-75
2021/12/13 15:52:17;;;;;;;28.05;13.07;;;;;;;14.06;66.54;102319.59;6062108;23;96687;-76
2021/12/13 15:54:48;;;;;;;29.73;12.55;;;;;;;14.48;64.67;102319.44;6061828;23;101453;-76
2021/12/13 15:57:17;;;;;;;31.90;11.95;;;;;;;14.36;64.81;102324.13;6063477;23;97451;-76
2021/12/13 15:59:47;;;;;;;25.45;12.50;;;;;;;13.90;65.59;102320.91;6061493;23;97205;-75
2021/12/13 16:02:18;;;;;;;25.65;12.70;;;;;;;14.26;65.45;102319.09;6062372;23;96913;-77
2021/12/13 16:04:49;;;;;;;26.27;11.48;;;;;;;14.29;65.31;102314.56;6061655;23;99015;-76
2021/12/13 16:07:17;;;;;;;22.20;11.15;;;;;;;14.57;64.64;102330.69;6062221;23;97162;-75
2021/12/13 16:09:48;;;;;;;23.67;11.75;;;;;;;14.51;64.25;102320.22;6061849;23;96670;-74
2021/12/13 16:12:18;;;;;;;25.65;11.50;;;;;;;14.71;63.60;102319.66;6063836;23;96680;-74
2021/12/13 16:14:47;;;;;;;23.30;11.52;;;;;;;14.55;63.94;102329.88;6063431;23;99786;-73
2021/12/13 16:17:18;;;;;;;26.27;11.95;;;;;;;14.54;64.25;102327.25;6060844;23;98216;-75
2021/12/13 16:19:59;;;;;;;26.67;10.88;;;;;;;14.48;64.30;102330.94;6064232;23;96744;-74
2021/12/13 16:22:49;;;;;;;23.92;11.52;;;;;;;14.59;63.71;102336.84;6071256;23;96818;-75
2021/12/13 16:25:31;;;;;;;18.70;9.55;;;;;;;14.46;63.91;102342.53;6080442;23;98744;-76
2021/12/13 16:28:01;;;;;;;21.33;10.07;;;;;;;14.54;64.41;102341.41;6089076;23;97741;-75
2021/12/13 16:30:31;;;;;;;20.20;10.02;;;;;;;14.61;63.88;102337.69;6087952;23;95916;-75
2021/12/13 16:33:00;;;;;;;18.42;10.00;;;;;;;14.56;64.15;102339.59;6087419;23;96325;-74
2021/12/13 16:35:32;;;;;;;22.73;11.88;;;;;;;14.73;64.11;102345.31;6084881;23;99061;-73
2021/12/13 16:38:02;;;;;;;24.95;10.02;;;;;;;14.80;63.59;102337.19;6082319;23;96572;-75
2021/12/13 16:40:32;;;;;;;22.80;10.68;;;;;;;14.83;63.22;102337.09;6070957;23;96785;-74
2021/12/13 16:43:00;;;;;;;18.15;9.05;;;;;;;14.62;63.49;102334.13;6065202;23;96819;-76
2021/12/13 16:45:30;;;;;;;21.38;9.55;;;;;;;14.79;63.22;102335.41;6064485;23;99012;-73
2021/12/13 16:47:56;;;;;;;22.05;9.25;;;;;;;14.86;62.97;102337.88;6063414;23;98871;-75
2021/12/13 16:50:28;;;;;;;18.38;9.27;;;;;;;14.83;63.54;102335.31;6061760;23;97043;-75
2021/12/13 16:52:58;;;;;;;24.33;13.43;;;;;;;14.68;63.29;102344.59;6065841;23;97291;-76
2021/12/13 16:55:27;;;;;;;15.82;8.93;;;;;;;14.61;64.10;102344.78;6062928;23;102894;-74
2021/12/13 16:57:55;;;;;;;20.05;9.30;;;;;;;14.63;63.90;102345.63;6066531;23;99157;-74
2021/12/13 17:00:26;;;;;;;18.80;9.38;;;;;;;14.77;63.55;102350.59;6065785;23;96945;-73
2021/12/13 17:02:55;;;;;;;17.83;8.30;;;;;;;14.58;63.91;102352.84;6068654;23;96667;-74
2021/12/13 17:05:26;;;;;;;15.32;7.97;;;;;;;14.51;64.17;102346.81;6063750;23;99578;-76
2021/12/13 17:07:56;;;;;;;13.48;8.60;;;;;;;14.55;64.42;102359.13;6062513;23;97651;-76
2021/12/13 17:10:32;;;;;;;16.73;8.43;;;;;;;14.53;64.31;102366.28;6063589;23;97172;-74
2021/12/13 17:13:02;;;;;;;13.23;8.18;;;;;;;14.61;63.84;102358.09;6063890;23;96591;-75
2021/12/13 17:15:35;;;;;;;13.68;8.25;;;;;;;14.82;63.51;102357.50;6064061;23;98889;-75
2021/12/13 17:18:23;;;;;;;15.00;7.90;;;;;;;14.41;64.05;102360.41;6064694;23;96883;-74
2021/12/13 17:20:57;;;;;;;15.05;8.52;;;;;;;14.49;64.22;102364.63;6065642;23;96746;-75
2021/12/13 17:23:31;;;;;;;17.95;9.65;;;;;;;14.14;65.68;102367.25;6063892;23;97343;-76
2021/12/13 17:25:58;;;;;;;17.40;9.35;;;;;;;14.14;65.26;102367.25;6061869;23;99413;-75
2021/12/13 17:28:37;;;;;;;16.00;9.02;;;;;;;14.38;64.82;102371.97;6070126;23;98965;-73
2021/12/13 17:31:05;;;;;;;16.75;9.85;;;;;;;14.51;64.20;102372.53;6069445;23;97202;-75
2021/12/13 17:33:37;;;;;;;18.10;9.43;;;;;;;14.42;64.47;102368.34;6074898;23;96482;-74
2021/12/13 17:36:05;;;;;;;17.50;10.23;;;;;;;14.41;64.83;102369.25;6070510;23;97840;-76
2021/12/13 17:38:36;;;;;;;21.58;10.25;;;;;;;14.61;63.65;102366.06;6068784;23;96667;-78
2021/12/13 17:41:09;;;;;;;22.48;10.85;;;;;;;14.67;64.22;102361.47;6060461;23;96692;-76
2021/12/13 17:43:39;;;;;;;15.95;9.95;;;;;;;14.75;63.13;102359.47;6062265;23;96851;-75
2021/12/13 17:46:10;;;;;;;19.48;10.70;;;;;;;14.55;64.20;102363.56;6060312;23;98854;-75
2021/12/13 17:48:42;;;;;;;17.45;10.52;;;;;;;14.69;63.52;102356.09;6060247;23;99164;-74
2021/12/13 17:51:13;;;;;;;21.08;9.77;;;;;;;14.64;63.52;102361.53;6061023;23;96703;-76
2021/12/13 17:53:51;;;;;;;19.50;10.25;;;;;;;14.61;63.05;102352.78;6061400;23;97205;-73
2021/12/13 17:56:29;;;;;;;22.83;10.68;;;;;;;14.66;63.28;102361.50;6059797;23;99054;-74
2021/12/13 17:59:01;;;;;;;19.60;11.23;;;;;;;14.73;63.45;102363.06;6060913;23;98817;-75
2021/12/13 18:01:34;;;;;;;19.38;11.13;;;;;;;14.77;62.85;102367.38;6060695;23;96829;-74